Private Wetterstation Nrnberg - Katzwang
Wetterdaten: Januar 2015
Datum Temp. A. Feuchte A. Luftdruck Regen Wind Richtung Taupunkt Windchill Windben
01.01.2015 1,3 C 87 % 1032 hPa 0,5 l/m 1,0 km/h N -0,7 C 1,3 C 2,0 km/h
02.01.2015 1,5 C 87 % 1028 hPa 0,5 l/m 3,3 km/h W-NW -0,5 C 1,0 C 4,3 km/h
03.01.2015 1,3 C 86 % 1017 hPa 3,1 l/m 0,0 km/h W-NW -0,7 C 1,3 C 1,0 km/h
04.01.2015 1,5 C 85 % 1027 hPa 9,8 l/m 0,0 km/h W-NW -0,7 C 1,5 C 1,0 km/h
05.01.2015 0,6 C 82 % 1027 hPa 3,1 l/m 2,2 km/h W-NW -2,2 C 0,0 C 3,2 km/h
06.01.2015 -0,8 C 82 % 1022 hPa 0,0 l/m 1,7 km/h NO -3,5 C -0,9 C 2,7 km/h
07.01.2015 0,6 C 86 % 1026 hPa 1,0 l/m 0,0 km/h NO -1,5 C 0,6 C 1,0 km/h
08.01.2015 4,7 C 86 % 1022 hPa 1,6 l/m 9,1 km/h N-NO 2,5 C 1,9 C 21,7 km/h
09.01.2015 7,4 C 83 % 1017 hPa 5,2 l/m 9,0 km/h W-NW 4,7 C 5,6 C 10,9 km/h
10.01.2015 11,6 C 82 % 1011 hPa 9,3 l/m 14,5 km/h W-NW 8,6 C 7,2 C 18,9 km/h
11.01.2015 3,6 C 74 % 1017 hPa 0,0 l/m 23,2 km/h W-NW -0,7 C -5,6 C 43,0 km/h
12.01.2015 5,6 C 71 % 1019 hPa 0,0 l/m 11,4 km/h W-NW 0,6 C 2,0 C 9,4 km/h
13.01.2015 6,0 C 60 % 1011 hPa 0,0 l/m 13,2 km/h N-NO -1,4 C 1,6 C 11,0 km/h
14.01.2015 3,8 C 81 % 1013 hPa 2,1 l/m 11,6 km/h W-NW 0,7 C -0,8 C 9,6 km/h
15.01.2015 4,6 C 77 % 1007 hPa 0,5 l/m 14,5 km/h NO 0,9 C -1,1 C 12,0 km/h
16.01.2015 4,2 C 79 % 1004 hPa 0,0 l/m 0,0 km/h N 0,8 C 4,2 C 0,0 km/h
17.01.2015 3,6 C 86 % 1012 hPa 5,7 l/m 2,5 km/h W-NW 1,4 C 2,8 C 2,1 km/h
18.01.2015 2,1 C 84 % 1013 hPa 0,0 l/m 8,8 km/h N-NO -0,3 C -1,2 C 7,3 km/h
19.01.2015 0,9 C 82 % 1008 hPa 0,0 l/m 10,1 km/h O -1,8 C -3,0 C 8,4 km/h
20.01.2015 0,8 C 85 % 1008 hPa 1,0 l/m 0,0 km/h N -1,4 C 0,8 C 0,0 km/h
21.01.2015 0,6 C 84 % 1008 hPa 0,0 l/m 13,2 km/h O -1,8 C -5,1 C 11,0 km/h
22.01.2015 2,2 C 85 % 1010 hPa 0,0 l/m 0,0 km/h W-NW -0,1 C 2,2 C 0,0 km/h
23.01.2015 0,6 C 84 % 1018 hPa 0,5 l/m 3,8 km/h N -1,8 C 0,6 C 3,1 km/h
24.01.2015 0,5 C 83 % 1018 hPa 0,0 l/m 4,4 km/h W-NW -2,1 C -0,6 C 3,7 km/h
25.01.2015 1,2 C 85 % 1023 hPa 1,0 l/m 3,2 km/h W-NW -1,1 C -0,0 C 2,6 km/h
26.01.2015 1,4 C 85 % 1017 hPa 0,0 l/m 6,6 km/h N-NW -0,9 C -0,9 C 5,5 km/h
27.01.2015 1,7 C 86 % 1017 hPa 6,7 l/m 3,8 km/h W-NW -0,5 C 0,0 C 3,1 km/h
28.01.2015 2,7 C 82 % 1005 hPa 0,0 l/m 10,4 km/h W-NW -0,2 C -0,8 C 8,6 km/h
29.01.2015 2,2 C 81 % 985 hPa 1,6 l/m 21,1 km/h W-NW -0,7 C -6,5 C 23,0 km/h
30.01.2015 0,9 C 85 % 976 hPa 3,6 l/m 10,4 km/h W-NW -1,3 C -3,5 C 12,5 km/h
31.01.2015 0,2 C 85 % 983 hPa 1,6 l/m 6,6 km/h W-NW -2,1 C -2,1 C 5,5 km/h
Min-Datum 06.01.15 13.01.15 30.01.15 19 Tage 01.01.15 - 06.01.15 26.01.15 11.01.15
Min-Zeit 08:30 14:30 02:02 - 00:10 - 08:30 18:30 22:20
Minimum -3,9 C 49 % 972 hPa - 0,0 km/h - -5,9 C -16,8 C 0,0 km/h
Max-Datum 10.01.15 01.01.15 01.01.15 04.01.15 12.01.15 - 10.01.15 10.01.15 10.01.15
Max-Zeit 13:00 10:20 09:30 00:50 00:10 - 12:10 07:30 17:50
Maximum 15,0 C 88 % 1034 hPa 9,8 l/m 78,1 km/h
W-NW
- 10,0 C 12,5 C 154,4 km/h
W-NW
Durchschnitt 2,5 C 82 % 1013 hPa #58,5 l/m 7,1 km/h W-NW -0,2 C 0,1 C 8,0 km/h

Durchschnitt Minimum Temp.0,1 C
Durchschnitt Maximum Temp.4,9 C